createdAt,value
2023-03-22T00:02:08.175Z,5.43
2023-03-22T00:04:35.688Z,5.40
2023-03-22T00:07:03.241Z,5.35
2023-03-22T00:09:31.379Z,5.31
2023-03-22T00:11:58.824Z,5.29
2023-03-22T00:14:26.543Z,5.27
2023-03-22T00:16:54.194Z,5.24
2023-03-22T00:19:21.880Z,5.24
2023-03-22T00:21:50.981Z,5.22
2023-03-22T00:24:20.489Z,5.20
2023-03-22T00:26:48.014Z,5.18
2023-03-22T00:29:15.476Z,5.13
2023-03-22T00:31:42.964Z,5.10
2023-03-22T00:34:11.128Z,5.06
2023-03-22T00:36:40.046Z,5.03
2023-03-22T00:39:08.224Z,5.00
2023-03-22T00:41:35.703Z,4.93
2023-03-22T00:44:03.370Z,4.92
2023-03-22T00:46:31.352Z,4.88
2023-03-22T00:48:59.059Z,4.87
2023-03-22T00:51:27.001Z,4.88
2023-03-22T00:53:57.395Z,4.88
2023-03-22T00:56:27.013Z,4.87
2023-03-22T00:58:56.605Z,4.84
2023-03-22T01:01:24.737Z,4.82
2023-03-22T01:03:52.814Z,4.82
2023-03-22T01:06:21.484Z,4.83
2023-03-22T01:08:50.358Z,4.82
2023-03-22T01:11:18.512Z,4.85
2023-03-22T01:13:47.444Z,4.86
2023-03-22T01:16:16.586Z,4.89
2023-03-22T01:18:44.896Z,4.90
2023-03-22T01:21:13.322Z,4.93
2023-03-22T01:23:41.143Z,4.95
2023-03-22T01:26:09.058Z,4.94
2023-03-22T01:28:39.049Z,4.97
2023-03-22T01:31:07.579Z,4.98
2023-03-22T01:33:36.283Z,4.99
2023-03-22T01:36:05.022Z,5.00
2023-03-22T01:38:33.585Z,5.04
2023-03-22T01:41:01.456Z,5.05
2023-03-22T01:43:30.910Z,5.05
2023-03-22T01:45:58.756Z,5.04
2023-03-22T01:48:36.587Z,5.05
2023-03-22T01:51:18.339Z,5.05
2023-03-22T01:53:54.875Z,5.04
2023-03-22T01:56:25.534Z,5.01
2023-03-22T01:58:54.936Z,4.97
2023-03-22T02:01:25.329Z,4.95
2023-03-22T02:03:59.082Z,4.93
2023-03-22T02:06:29.251Z,4.92
2023-03-22T02:08:58.943Z,4.90
2023-03-22T02:11:32.606Z,4.86
2023-03-22T02:14:48.168Z,4.85
2023-03-22T02:18:06.311Z,4.83
2023-03-22T02:21:02.853Z,4.79
2023-03-22T02:23:55.323Z,4.77
2023-03-22T02:27:17.882Z,4.75
2023-03-22T02:29:59.571Z,4.74
2023-03-22T02:32:38.722Z,4.74
2023-03-22T02:35:51.469Z,4.76
2023-03-22T02:38:33.602Z,4.79
2023-03-22T02:41:11.944Z,4.82
2023-03-22T02:43:57.081Z,4.85
2023-03-22T02:46:44.485Z,4.88
2023-03-22T02:49:23.918Z,4.91
2023-03-22T02:52:21.237Z,4.94
2023-03-22T02:55:21.233Z,4.95
2023-03-22T02:58:20.917Z,4.98
2023-03-22T03:00:54.041Z,4.99
2023-03-22T03:03:25.030Z,5.02
2023-03-22T03:05:57.291Z,5.02
2023-03-22T03:08:26.492Z,5.01
2023-03-22T03:10:55.136Z,5.00
2023-03-22T03:13:23.662Z,5.00
2023-03-22T03:15:58.532Z,5.01
2023-03-22T03:18:47.871Z,5.01
2023-03-22T03:21:34.301Z,5.03
2023-03-22T03:24:38.514Z,5.01
2023-03-22T03:27:14.753Z,4.99
2023-03-22T03:29:54.040Z,4.95
2023-03-22T03:32:47.893Z,4.93
2023-03-22T03:35:26.776Z,4.93
2023-03-22T03:38:00.953Z,4.91
2023-03-22T03:40:32.836Z,4.87
2023-03-22T03:43:03.719Z,4.83
2023-03-22T03:45:32.647Z,4.83
2023-03-22T03:48:04.829Z,4.82
2023-03-22T03:50:33.112Z,4.81
2023-03-22T03:53:01.162Z,4.78
2023-03-22T03:55:30.248Z,4.76
2023-03-22T03:57:57.812Z,4.75
2023-03-22T04:00:25.987Z,4.75
2023-03-22T04:03:02.197Z,4.75
2023-03-22T04:05:32.092Z,4.75
2023-03-22T04:07:59.996Z,4.72
2023-03-22T04:10:27.786Z,4.69
2023-03-22T04:12:55.971Z,4.66
2023-03-22T04:15:24.256Z,4.62
2023-03-22T04:17:54.015Z,4.58
2023-03-22T04:20:25.330Z,4.51
2023-03-22T04:22:53.389Z,4.47
2023-03-22T04:25:22.376Z,4.44
2023-03-22T04:27:53.868Z,4.42
2023-03-22T04:30:22.464Z,4.38
2023-03-22T04:33:06.893Z,4.35
2023-03-22T04:35:55.417Z,4.34
2023-03-22T04:38:24.859Z,4.33
2023-03-22T04:40:52.976Z,4.33
2023-03-22T04:43:22.503Z,4.33
2023-03-22T04:45:56.567Z,4.34
2023-03-22T04:48:27.577Z,4.36
2023-03-22T04:50:56.674Z,4.37
2023-03-22T04:53:26.878Z,4.36
2023-03-22T04:55:57.231Z,4.35
2023-03-22T04:58:26.304Z,4.34
2023-03-22T05:00:54.379Z,4.30
2023-03-22T05:03:22.340Z,4.30
2023-03-22T05:06:02.851Z,4.33
2023-03-22T05:08:33.058Z,4.36
2023-03-22T05:11:15.808Z,4.35
2023-03-22T05:13:46.042Z,4.34
2023-03-22T05:16:15.633Z,4.32
2023-03-22T05:18:49.578Z,4.33
2023-03-22T05:21:20.129Z,4.40
2023-03-22T05:23:51.681Z,4.46
2023-03-22T05:26:22.570Z,4.52
2023-03-22T05:28:50.967Z,4.58
2023-03-22T05:31:21.648Z,4.65
2023-03-22T05:33:54.531Z,4.70
2023-03-22T05:36:23.919Z,4.76
2023-03-22T05:39:03.267Z,4.81
2023-03-22T05:41:34.623Z,4.86
2023-03-22T05:44:02.941Z,4.93
2023-03-22T05:46:31.027Z,5.00
2023-03-22T05:49:19.668Z,5.07
2023-03-22T05:51:47.944Z,5.13
2023-03-22T05:54:16.104Z,5.17
2023-03-22T05:56:46.793Z,5.26
2023-03-22T05:59:14.958Z,5.34
2023-03-22T06:01:42.772Z,5.42
2023-03-22T06:04:15.063Z,5.51
2023-03-22T06:06:50.120Z,5.59
2023-03-22T06:09:32.032Z,5.71
2023-03-22T06:12:01.415Z,5.84
2023-03-22T06:14:31.565Z,5.97
2023-03-22T06:17:09.001Z,6.14
2023-03-22T06:19:37.247Z,6.33
2023-03-22T06:22:05.885Z,6.53
2023-03-22T06:24:36.088Z,6.66
2023-03-22T06:27:06.196Z,6.84
2023-03-22T06:29:34.898Z,6.98
2023-03-22T06:32:03.668Z,7.24
2023-03-22T06:34:33.614Z,7.59
2023-03-22T06:37:02.132Z,8.01
2023-03-22T06:39:34.781Z,8.49
2023-03-22T06:42:04.164Z,8.98
2023-03-22T06:44:45.000Z,9.54
2023-03-22T06:47:29.777Z,10.12
2023-03-22T06:50:05.406Z,10.67
2023-03-22T06:52:44.585Z,11.14
2023-03-22T06:55:13.745Z,11.55
2023-03-22T06:57:41.576Z,12.09
2023-03-22T07:00:14.764Z,12.52
2023-03-22T07:02:42.538Z,12.87
2023-03-22T07:05:15.068Z,13.05
2023-03-22T07:07:43.016Z,13.36
2023-03-22T07:10:11.200Z,13.76
2023-03-22T07:12:39.526Z,14.04
2023-03-22T07:15:10.047Z,14.11
2023-03-22T07:17:52.187Z,14.00
2023-03-22T07:20:20.798Z,13.79
2023-03-22T07:22:51.064Z,13.67
2023-03-22T07:25:20.638Z,13.69
2023-03-22T07:27:49.286Z,13.55
2023-03-22T07:30:17.721Z,13.37
2023-03-22T07:32:46.250Z,13.31
2023-03-22T07:35:16.319Z,13.23
2023-03-22T07:37:44.933Z,13.11
2023-03-22T07:40:14.950Z,12.79
2023-03-22T07:42:42.671Z,12.55
2023-03-22T07:45:12.215Z,12.57
2023-03-22T07:47:43.323Z,12.68
2023-03-22T07:50:21.399Z,12.92
2023-03-22T07:52:50.939Z,13.17
2023-03-22T07:55:19.220Z,13.19
2023-03-22T07:57:46.928Z,13.19
2023-03-22T08:00:16.738Z,13.25
2023-03-22T08:02:46.263Z,13.36
2023-03-22T08:05:18.696Z,13.49
2023-03-22T08:07:50.954Z,13.59
2023-03-22T08:10:18.877Z,13.77
2023-03-22T08:12:46.829Z,14.13
2023-03-22T08:15:16.521Z,14.49
2023-03-22T08:17:50.038Z,14.81
2023-03-22T08:20:19.783Z,15.00
2023-03-22T08:22:52.883Z,15.19
2023-03-22T08:25:39.084Z,15.48
2023-03-22T08:28:12.240Z,15.87
2023-03-22T08:30:40.177Z,16.18
2023-03-22T08:33:09.369Z,16.34
2023-03-22T08:35:37.504Z,16.35
2023-03-22T08:38:08.590Z,16.37
2023-03-22T08:40:38.552Z,16.36
2023-03-22T08:43:07.324Z,16.33
2023-03-22T08:45:35.644Z,16.35
2023-03-22T08:48:06.028Z,16.52
2023-03-22T08:50:35.881Z,16.66
2023-03-22T08:53:08.634Z,16.64
2023-03-22T08:55:37.434Z,16.70
2023-03-22T08:58:16.491Z,16.72
2023-03-22T09:01:01.915Z,16.66
2023-03-22T09:03:58.449Z,16.52
2023-03-22T09:06:27.459Z,16.32
2023-03-22T09:08:58.924Z,16.34
2023-03-22T09:11:28.138Z,16.48
2023-03-22T09:13:56.260Z,16.57
2023-03-22T09:16:24.282Z,16.45
2023-03-22T09:18:52.416Z,16.43
2023-03-22T09:21:21.630Z,16.18
2023-03-22T09:23:51.367Z,15.70
2023-03-22T09:26:22.341Z,15.38
2023-03-22T09:28:51.088Z,15.14
2023-03-22T09:31:20.541Z,14.97
2023-03-22T09:33:49.936Z,14.78
2023-03-22T09:36:18.092Z,14.70
2023-03-22T09:38:46.236Z,14.67
2023-03-22T09:41:20.197Z,14.68
2023-03-22T09:43:55.559Z,14.75
2023-03-22T09:46:34.533Z,14.95
2023-03-22T09:49:07.365Z,15.38
2023-03-22T09:51:51.004Z,15.77
2023-03-22T09:54:40.608Z,15.89
2023-03-22T09:57:25.891Z,15.89
2023-03-22T10:00:13.213Z,16.11
2023-03-22T10:03:04.673Z,16.37
2023-03-22T10:05:49.670Z,16.67
2023-03-22T10:08:37.186Z,16.98
2023-03-22T10:11:10.453Z,17.30
2023-03-22T10:13:52.266Z,17.56
2023-03-22T10:16:27.359Z,17.67
2023-03-22T10:18:57.971Z,17.91
2023-03-22T10:21:26.691Z,18.21
2023-03-22T10:24:06.704Z,18.50
2023-03-22T10:26:40.832Z,18.43
2023-03-22T10:29:22.009Z,18.21
2023-03-22T10:31:49.936Z,17.85
2023-03-22T10:34:27.525Z,17.74
2023-03-22T10:36:55.364Z,18.00
2023-03-22T10:39:38.342Z,18.19
2023-03-22T10:42:16.575Z,18.06
2023-03-22T10:45:01.212Z,17.79
2023-03-22T10:47:45.916Z,17.77
2023-03-22T10:50:22.202Z,17.79
2023-03-22T10:52:56.281Z,18.01
2023-03-22T10:55:24.888Z,18.26
2023-03-22T10:58:18.249Z,18.19
2023-03-22T11:00:51.456Z,18.09
2023-03-22T11:03:39.618Z,18.27
2023-03-22T11:06:20.481Z,18.00
2023-03-22T11:08:51.622Z,17.56
2023-03-22T11:11:30.270Z,17.30
2023-03-22T11:14:31.105Z,17.20
2023-03-22T11:17:10.040Z,17.07
2023-03-22T11:19:42.446Z,17.28
2023-03-22T11:22:26.615Z,17.51
2023-03-22T11:24:56.420Z,17.48
2023-03-22T11:27:33.289Z,17.55
2023-03-22T11:30:20.419Z,17.57
2023-03-22T11:32:48.684Z,17.36
2023-03-22T11:35:26.592Z,17.47
2023-03-22T11:37:55.818Z,17.55
2023-03-22T11:40:27.565Z,17.46
2023-03-22T11:43:39.269Z,17.42
2023-03-22T11:46:08.838Z,17.47
2023-03-22T11:48:37.614Z,17.51
2023-03-22T11:51:13.038Z,17.47
2023-03-22T11:53:44.685Z,17.56
2023-03-22T11:56:15.861Z,17.72
2023-03-22T11:59:13.194Z,17.90
2023-03-22T12:02:02.902Z,17.99
2023-03-22T12:04:36.016Z,17.96
2023-03-22T12:07:12.490Z,17.78
2023-03-22T12:10:06.504Z,17.51
2023-03-22T12:12:42.678Z,17.31
2023-03-22T12:15:23.819Z,17.30
2023-03-22T12:18:08.019Z,17.27
2023-03-22T12:20:53.911Z,17.25
2023-03-22T12:23:28.988Z,17.38
2023-03-22T12:26:14.105Z,17.62
2023-03-22T12:29:09.404Z,17.84
2023-03-22T12:31:58.235Z,17.97
2023-03-22T12:34:47.108Z,18.06
2023-03-22T12:37:30.563Z,18.11
2023-03-22T12:40:20.269Z,17.84
2023-03-22T12:43:12.153Z,17.67
2023-03-22T12:45:54.596Z,17.57
2023-03-22T12:48:44.612Z,17.63
2023-03-22T12:51:15.864Z,17.69
2023-03-22T12:53:59.475Z,17.57
2023-03-22T12:56:43.512Z,17.56
2023-03-22T12:59:19.697Z,17.53
2023-03-22T13:01:56.255Z,17.49
2023-03-22T13:04:40.808Z,17.66
2023-03-22T13:07:30.368Z,17.63
2023-03-22T13:10:01.417Z,17.65
2023-03-22T13:12:33.442Z,17.81
2023-03-22T13:15:40.356Z,17.85
2023-03-22T13:18:00.003Z,17.92
2023-03-22T13:20:33.564Z,17.88
2023-03-22T13:23:08.359Z,17.79
2023-03-22T13:25:39.910Z,17.74
2023-03-22T13:28:26.519Z,17.57
2023-03-22T13:30:58.401Z,17.29
2023-03-22T13:33:30.887Z,17.12
2023-03-22T13:36:25.209Z,17.06
2023-03-22T13:39:04.578Z,17.01
2023-03-22T13:41:36.694Z,17.00
2023-03-22T13:44:26.086Z,17.04
2023-03-22T13:46:58.216Z,16.98
2023-03-22T13:49:52.761Z,16.78
2023-03-22T13:52:28.172Z,16.57
2023-03-22T13:54:57.003Z,16.51
2023-03-22T13:57:49.764Z,16.63
2023-03-22T14:00:32.131Z,16.77
2023-03-22T14:03:24.292Z,16.94
2023-03-22T14:06:03.906Z,17.06
2023-03-22T14:08:34.502Z,17.10
2023-03-22T14:11:32.084Z,16.98
2023-03-22T14:14:15.998Z,16.71
2023-03-22T14:16:55.416Z,16.60
2023-03-22T14:19:27.478Z,16.38
